地図

経路データ

SID SEASON NUMBER BASIN SUBBASIN NAME ISO_TIME NATURE LAT LON WMO_WIND WMO_PRES WMO_AGENCY TRACK_TYPE DIST2LAND LANDFALL IFLAG USA_AGENCY USA_ATCF_ID USA_LAT USA_LON USA_RECORD USA_STATUS USA_WIND USA_PRES USA_SSHS USA_R34_NE USA_R34_SE USA_R34_SW USA_R34_NW USA_R50_NE USA_R50_SE USA_R50_SW USA_R50_NW USA_R64_NE USA_R64_SE USA_R64_SW USA_R64_NW USA_POCI USA_ROCI USA_RMW USA_EYE TOKYO_LAT TOKYO_LON TOKYO_GRADE TOKYO_WIND TOKYO_PRES TOKYO_R50_DIR TOKYO_R50_LONG TOKYO_R50_SHORT TOKYO_R30_DIR TOKYO_R30_LONG TOKYO_R30_SHORT TOKYO_LAND CMA_LAT CMA_LON CMA_CAT CMA_WIND CMA_PRES HKO_LAT HKO_LON HKO_CAT HKO_WIND HKO_PRES NEWDELHI_LAT NEWDELHI_LON NEWDELHI_GRADE NEWDELHI_WIND NEWDELHI_PRES NEWDELHI_CI NEWDELHI_DP NEWDELHI_POCI REUNION_LAT REUNION_LON REUNION_TYPE REUNION_WIND REUNION_PRES REUNION_TNUM REUNION_CI REUNION_RMW REUNION_R34_NE REUNION_R34_SE REUNION_R34_SW REUNION_R34_NW REUNION_R50_NE REUNION_R50_SE REUNION_R50_SW REUNION_R50_NW REUNION_R64_NE REUNION_R64_SE REUNION_R64_SW REUNION_R64_NW BOM_LAT BOM_LON BOM_TYPE BOM_WIND BOM_PRES BOM_TNUM BOM_CI BOM_RMW BOM_R34_NE BOM_R34_SE BOM_R34_SW BOM_R34_NW BOM_R50_NE BOM_R50_SE BOM_R50_SW BOM_R50_NW BOM_R64_NE BOM_R64_SE BOM_R64_SW BOM_R64_NW BOM_ROCI BOM_POCI BOM_EYE BOM_POS_METHOD BOM_PRES_METHOD NADI_LAT NADI_LON NADI_CAT NADI_WIND NADI_PRES WELLINGTON_LAT WELLINGTON_LON WELLINGTON_WIND WELLINGTON_PRES DS824_LAT DS824_LON DS824_STAGE DS824_WIND DS824_PRES TD9636_LAT TD9636_LON TD9636_STAGE TD9636_WIND TD9636_PRES TD9635_LAT TD9635_LON TD9635_WIND TD9635_PRES TD9635_ROCI NEUMANN_LAT NEUMANN_LON NEUMANN_CLASS NEUMANN_WIND NEUMANN_PRES MLC_LAT MLC_LON MLC_CLASS MLC_WIND MLC_PRES USA_GUST BOM_GUST BOM_GUST_PER REUNION_GUST REUNION_GUST_PER USA_SEAHGT USA_SEARAD_NE USA_SEARAD_SE USA_SEARAD_SW USA_SEARAD_NW STORM_SPEED STORM_DIR
1994001N05156 1994 1 WP MM NOT_NAMED 1994-01-01 06:00:00 NR 5.40000 155.800 main 1055 1020 O_____________ jtwc_wp WP011994 5.40000 155.800 20 -1 19 279
1994001N05156 1994 1 WP MM NOT_NAMED 1994-01-01 09:00:00 NR 5.55030 154.850 main 1030 1002 P_____________ WP011994 5.55030 154.850 20 -1 19 279
1994001N05156 1994 1 WP MM NOT_NAMED 1994-01-01 12:00:00 NR 5.70000 153.900 main 998 980 O_____________ jtwc_wp WP011994 5.70000 153.900 20 -1 19 279
1994001N05156 1994 1 WP MM NOT_NAMED 1994-01-01 15:00:00 NR 5.84984 152.950 main 978 976 P_____________ WP011994 5.84984 152.950 20 -1 19 279
1994001N05156 1994 1 WP MM NOT_NAMED 1994-01-01 18:00:00 NR 6.00000 152.000 main 982 978 O_____________ jtwc_wp WP011994 6.00000 152.000 20 -1 19 279
1994001N05156 1994 1 WP MM NOT_NAMED 1994-01-01 21:00:00 NR 6.14983 151.050 main 986 986 P_____________ WP011994 6.14983 151.050 20 -1 19 279
1994001N05156 1994 1 WP MM NOT_NAMED 1994-01-02 00:00:00 NR 6.30000 150.100 main 987 973 O_____________ jtwc_wp WP011994 6.30000 150.100 20 -1 19 279
1994001N05156 1994 1 WP MM NOT_NAMED 1994-01-02 03:00:00 NR 6.44982 149.150 main 971 971 P_____________ WP011994 6.44982 149.150 22 -1 19 279
1994001N05156 1994 1 WP MM NOT_NAMED 1994-01-02 06:00:00 NR 6.60000 148.200 main 978 976 O_____________ jtwc_wp WP011994 6.60000 148.200 25 -1 19 279
1994001N05156 1994 1 WP MM NOT_NAMED 1994-01-02 09:00:00 NR 6.74982 147.250 main 986 986 P_____________ WP011994 6.74982 147.250 25 -1 19 279
1994001N05156 1994 1 WP MM NOT_NAMED 1994-01-02 12:00:00 NR 6.90000 146.300 main 1009 1009 O_____________ jtwc_wp WP011994 6.90000 146.300 25 -1 19 279
1994001N05156 1994 1 WP MM NOT_NAMED 1994-01-02 15:00:00 NR 7.04981 145.350 main 1029 1029 P_____________ WP011994 7.04981 145.350 25 -1 19 279
1994001N05156 1994 1 WP MM NOT_NAMED 1994-01-02 18:00:00 NR 7.20000 144.400 main 1070 1070 O_____________ jtwc_wp WP011994 7.20000 144.400 25 -1 19 279
1994001N05156 1994 1 WP MM NOT_NAMED 1994-01-02 21:00:00 NR 7.34980 143.450 main 1111 1111 P_____________ WP011994 7.34980 143.450 25 -1 19 279
1994001N05156 1994 1 WP MM NOT_NAMED 1994-01-03 00:00:00 NR 7.50000 142.500 main 1124 1097 O_____________ jtwc_wp WP011994 7.50000 142.500 25 -1 19 279
1994001N05156 1994 1 WP MM NOT_NAMED 1994-01-03 03:00:00 NR 7.64984 141.542 main 1094 1084 P_____________ WP011994 7.64984 141.542 25 -1 19 279
1994001N05156 1994 1 WP MM NOT_NAMED 1994-01-03 06:00:00 NR 7.80000 140.600 main 1086 1062 O_____________ jtwc_wp WP011994 7.80000 140.600 25 -1 19 279
1994001N05156 1994 1 WP MM NOT_NAMED 1994-01-03 09:00:00 NR 7.94976 139.692 main 1062 1047 P_____________ WP011994 7.94976 139.692 25 -1 18 280
1994001N05156 1994 1 WP MM NOT_NAMED 1994-01-03 12:00:00 NR 8.10000 138.800 main 1047 1029 O_____________ jtwc_wp WP011994 8.10000 138.800 25 -1 18 280
1994001N05156 1994 1 WP MM NOT_NAMED 1994-01-03 15:00:00 NR 8.24980 137.900 main 1029 1025 P_____________ WP011994 8.24980 137.900 25 -1 18 280
1994001N05156 1994 1 WP MM NOT_NAMED 1994-01-03 18:00:00 NR 8.40000 137.000 main 1031 1026 O_____________ jtwc_wp WP011994 8.40000 137.000 25 -1 18 280
1994001N05156 1994 1 WP MM NOT_NAMED 1994-01-03 21:00:00 NR 8.54979 136.100 main 1032 964 P_____________ WP011994 8.54979 136.100 25 -1 18 280
1994001N05156 1994 1 WP MM NOT_NAMED 1994-01-04 00:00:00 NR 8.70000 135.200 main 953 856 O_____________ jtwc_wp WP011994 8.70000 135.200 25 -1 18 279
1994001N05156 1994 1 WP MM NOT_NAMED 1994-01-04 03:00:00 NR 8.84234 134.292 main 856 751 P_____________ WP011994 8.84234 134.292 25 -1 20 278
1994001N05156 1994 1 WP MM NOT_NAMED 1994-01-04 06:00:00 NR 8.96000 133.240 main 741 646 O__O__________ jtwc_wp WP011994 9.00000 133.400 25 -1 8.80000 132.600 TD 25 1004 20 278
1994001N05156 1994 1 WP MM NOT_NAMED 1994-01-04 09:00:00 NR 9.13078 132.264 main 646 557 P__P__________ WP011994 9.19225 132.542 25 -1 9.00785 131.708 TD 27 1003 19 281
1994001N05156 1994 1 WP MM NOT_NAMED 1994-01-04 12:00:00 NR 9.31429 131.314 main 547 457 O__O__________ jtwc_wp WP011994 9.40000 131.700 25 -1 9.20000 130.800 TD 30 1002 19 280
1994001N05156 1994 1 WP MM NOT_NAMED 1994-01-04 15:00:00 NR 9.47866 130.356 main 457 362 P__P__________ WP011994 9.59240 130.835 25 -1 9.36493 129.877 TD 30 1002 18 281
1994001N05156 1994 1 WP MM NOT_NAMED 1994-01-04 18:00:00 NR 9.65000 129.500 main 365 282 O__O__________ jtwc_wp WP011994 9.80000 130.000 25 -1 9.50000 129.000 TD 30 1002 17 282
1994001N05156 1994 1 WP MM NOT_NAMED 1994-01-04 21:00:00 NR 9.81359 128.705 main 282 216 P__P__________ WP011994 10.0347 129.235 25 -1 9.59246 128.175 TD 30 1002 15 283
1994001N05156 1994 1 WP MM NOT_NAMED 1994-01-05 00:00:00 NR 10.0000 128.000 main 216 172 O__O__________ jtwc_wp WP011994 10.3000 128.500 25 -1 9.70000 127.500 TD 30 1002 14 288
1994001N05156 1994 1 WP MM NOT_NAMED 1994-01-05 03:00:00 NR 10.2349 127.384 main 172 132 P__P__________ WP011994 10.5850 127.727 25 -1 9.88473 127.040 TD 30 1001 12 297
1994001N05156 1994 1 WP MM NOT_NAMED 1994-01-05 06:00:00 NR 10.5571 126.871 main 128 66 O__O__________ jtwc_wp WP011994 10.9000 127.000 25 -1 10.1000 126.700 TD 30 1000 12 304
1994001N05156 1994 1 WP MM NOT_NAMED 1994-01-05 09:00:00 NR 10.9249 126.361 main 66 31 P__P__________ WP011994 11.2348 126.362 25 -1 10.3052 126.358 TD 30 1000 13 309
1994001N05156 1994 1 WP MM NOT_NAMED 1994-01-05 12:00:00 NR 11.3800 125.840 main 21 0 O__O__________ jtwc_wp WP011994 11.6000 125.800 25 -1 10.5000 126.000 TD 30 1000 15 315
1994001N05156 1994 1 WP MM NOT_NAMED 1994-01-05 15:00:00 NR 11.9924 125.262 main 0 0 P_____________ WP011994 11.9924 125.262 22 -1 TD 14 315
1994001N05156 1994 1 WP MM NOT_NAMED 1994-01-05 18:00:00 NR 12.4000 124.800 main 0 0 O_____________ jtwc_wp WP011994 12.4000 124.800 20 -1 12 314
1994001N05156 1994 1 WP MM NOT_NAMED 1994-01-05 21:00:00 NR 12.7999 124.420 main 32 10 P_____________ WP011994 12.7999 124.420 17 -1 11 320
1994001N05156 1994 1 WP MM NOT_NAMED 1994-01-06 00:00:00 NR 13.2000 124.100 main 21 11 O_____________ jtwc_wp WP011994 13.2000 124.100 15 -1 10 323
1994001N05156 1994 1 WP MM NOT_NAMED 1994-01-06 03:00:00 NR 13.6074 123.792 main 11 0 P_____________ WP011994 13.6074 123.792 15 -1 10 324
1994001N05156 1994 1 WP MM NOT_NAMED 1994-01-06 06:00:00 NR 14.0000 123.500 main 11 11 O_____________ jtwc_wp WP011994 14.0000 123.500 15 -1 10 323
1994001N05156 1994 1 WP MM NOT_NAMED 1994-01-06 09:00:00 NR 14.3601 123.203 main 39 31 P_____________ WP011994 14.3601 123.203 15 -1 9 320
1994001N05156 1994 1 WP MM NOT_NAMED 1994-01-06 12:00:00 NR 14.7000 122.900 main 55 O_____________ jtwc_wp WP011994 14.7000 122.900 15 -1 9 319

デジタル台風データ・検索

IBTrACS Databaseについて

本データベースは、米国NOAAが公開する1842年以降の世界の熱帯低気圧のベストトラックデータアーカイブInternational Best Track Archive for Climate Stewardship (IBTrACS)を、ウェブで閲覧しやすい形式に変換したものです。

最終更新日:2021-11-26